sensor_id;sensor_type;location;lat;lon;timestamp;P1;durP1;ratioP1;P2;durP2;ratioP2
19189;SDS011;9727;50.200;19.038;2024-02-15T00:02:12;15.63;;;7.37;;
19189;SDS011;9727;50.200;19.038;2024-02-15T00:04:38;13.80;;;7.20;;
19189;SDS011;9727;50.200;19.038;2024-02-15T00:07:05;13.43;;;7.27;;
19189;SDS011;9727;50.200;19.038;2024-02-15T00:09:32;14.93;;;7.80;;
19189;SDS011;9727;50.200;19.038;2024-02-15T00:11:58;12.93;;;7.47;;
19189;SDS011;9727;50.200;19.038;2024-02-15T00:14:27;15.73;;;8.67;;
19189;SDS011;9727;50.200;19.038;2024-02-15T00:16:53;14.37;;;7.40;;
19189;SDS011;9727;50.200;19.038;2024-02-15T00:19:20;16.60;;;7.83;;
19189;SDS011;9727;50.200;19.038;2024-02-15T00:21:47;14.30;;;7.07;;
19189;SDS011;9727;50.200;19.038;2024-02-15T00:24:14;13.97;;;8.00;;
19189;SDS011;9727;50.200;19.038;2024-02-15T00:26:40;13.53;;;6.90;;
19189;SDS011;9727;50.200;19.038;2024-02-15T00:29:13;14.07;;;6.90;;
19189;SDS011;9727;50.200;19.038;2024-02-15T00:31:43;13.20;;;6.87;;
19189;SDS011;9727;50.200;19.038;2024-02-15T00:34:12;14.77;;;6.70;;
19189;SDS011;9727;50.200;19.038;2024-02-15T00:36:43;12.83;;;6.70;;
19189;SDS011;9727;50.200;19.038;2024-02-15T00:39:12;13.17;;;6.27;;
19189;SDS011;9727;50.200;19.038;2024-02-15T00:41:39;10.03;;;6.30;;
19189;SDS011;9727;50.200;19.038;2024-02-15T00:44:09;12.63;;;6.23;;
19189;SDS011;9727;50.200;19.038;2024-02-15T00:46:36;14.50;;;6.10;;
19189;SDS011;9727;50.200;19.038;2024-02-15T00:49:04;12.50;;;6.67;;
19189;SDS011;9727;50.200;19.038;2024-02-15T00:51:31;12.13;;;6.73;;
19189;SDS011;9727;50.200;19.038;2024-02-15T00:53:58;12.90;;;5.90;;
19189;SDS011;9727;50.200;19.038;2024-02-15T00:56:25;11.43;;;6.30;;
19189;SDS011;9727;50.200;19.038;2024-02-15T00:58:51;12.87;;;6.60;;
19189;SDS011;9727;50.200;19.038;2024-02-15T01:01:18;12.47;;;6.90;;
19189;SDS011;9727;50.200;19.038;2024-02-15T01:03:47;13.40;;;7.20;;
19189;SDS011;9727;50.200;19.038;2024-02-15T01:06:15;13.47;;;6.47;;
19189;SDS011;9727;50.200;19.038;2024-02-15T01:08:43;12.73;;;6.80;;
19189;SDS011;9727;50.200;19.038;2024-02-15T01:11:11;15.93;;;6.83;;
19189;SDS011;9727;50.200;19.038;2024-02-15T01:13:38;13.77;;;7.10;;
19189;SDS011;9727;50.200;19.038;2024-02-15T01:16:05;12.73;;;6.57;;
19189;SDS011;9727;50.200;19.038;2024-02-15T01:18:32;15.80;;;7.13;;
19189;SDS011;9727;50.200;19.038;2024-02-15T01:20:58;16.93;;;6.73;;
19189;SDS011;9727;50.200;19.038;2024-02-15T01:23:27;12.37;;;6.47;;
19189;SDS011;9727;50.200;19.038;2024-02-15T01:25:54;14.50;;;7.07;;
19189;SDS011;9727;50.200;19.038;2024-02-15T01:28:20;10.47;;;6.40;;
19189;SDS011;9727;50.200;19.038;2024-02-15T01:30:47;14.47;;;6.90;;
19189;SDS011;9727;50.200;19.038;2024-02-15T01:33:13;15.73;;;7.30;;
19189;SDS011;9727;50.200;19.038;2024-02-15T01:35:40;13.77;;;6.57;;
19189;SDS011;9727;50.200;19.038;2024-02-15T01:38:08;12.20;;;6.23;;
19189;SDS011;9727;50.200;19.038;2024-02-15T01:40:37;18.10;;;6.67;;
19189;SDS011;9727;50.200;19.038;2024-02-15T01:43:04;12.70;;;6.70;;
19189;SDS011;9727;50.200;19.038;2024-02-15T01:45:31;12.17;;;6.50;;
19189;SDS011;9727;50.200;19.038;2024-02-15T01:47:57;14.73;;;7.37;;
19189;SDS011;9727;50.200;19.038;2024-02-15T01:50:24;15.97;;;7.20;;
19189;SDS011;9727;50.200;19.038;2024-02-15T01:52:51;14.27;;;6.60;;
19189;SDS011;9727;50.200;19.038;2024-02-15T01:55:18;15.73;;;7.83;;
19189;SDS011;9727;50.200;19.038;2024-02-15T01:57:47;16.77;;;6.43;;
19189;SDS011;9727;50.200;19.038;2024-02-15T02:00:15;13.90;;;7.20;;
19189;SDS011;9727;50.200;19.038;2024-02-15T02:02:43;12.23;;;6.73;;
19189;SDS011;9727;50.200;19.038;2024-02-15T02:05:12;13.17;;;6.80;;
19189;SDS011;9727;50.200;19.038;2024-02-15T02:07:39;14.80;;;6.60;;
19189;SDS011;9727;50.200;19.038;2024-02-15T02:10:08;12.87;;;7.00;;
19189;SDS011;9727;50.200;19.038;2024-02-15T02:12:36;13.70;;;6.40;;
19189;SDS011;9727;50.200;19.038;2024-02-15T02:15:06;9.97;;;6.07;;
19189;SDS011;9727;50.200;19.038;2024-02-15T02:17:33;13.57;;;6.90;;
19189;SDS011;9727;50.200;19.038;2024-02-15T02:20:00;11.93;;;6.87;;
19189;SDS011;9727;50.200;19.038;2024-02-15T02:22:31;14.00;;;6.17;;
19189;SDS011;9727;50.200;19.038;2024-02-15T02:25:03;10.40;;;5.93;;
19189;SDS011;9727;50.200;19.038;2024-02-15T02:27:31;10.53;;;5.33;;
19189;SDS011;9727;50.200;19.038;2024-02-15T02:29:58;12.90;;;6.33;;
19189;SDS011;9727;50.200;19.038;2024-02-15T02:32:24;13.17;;;6.67;;
19189;SDS011;9727;50.200;19.038;2024-02-15T02:34:51;12.47;;;7.27;;
19189;SDS011;9727;50.200;19.038;2024-02-15T02:37:22;14.93;;;8.27;;
19189;SDS011;9727;50.200;19.038;2024-02-15T02:39:48;13.20;;;7.93;;
19189;SDS011;9727;50.200;19.038;2024-02-15T02:42:16;11.57;;;7.33;;
19189;SDS011;9727;50.200;19.038;2024-02-15T02:44:43;14.63;;;7.83;;
19189;SDS011;9727;50.200;19.038;2024-02-15T02:47:12;14.50;;;7.77;;
19189;SDS011;9727;50.200;19.038;2024-02-15T02:49:39;15.07;;;8.03;;
19189;SDS011;9727;50.200;19.038;2024-02-15T02:52:05;17.57;;;7.37;;
19189;SDS011;9727;50.200;19.038;2024-02-15T02:54:32;12.83;;;7.63;;
19189;SDS011;9727;50.200;19.038;2024-02-15T02:56:59;13.17;;;7.30;;
19189;SDS011;9727;50.200;19.038;2024-02-15T02:59:27;14.63;;;7.40;;
19189;SDS011;9727;50.200;19.038;2024-02-15T03:01:54;16.40;;;7.50;;
19189;SDS011;9727;50.200;19.038;2024-02-15T03:04:21;11.90;;;7.17;;
19189;SDS011;9727;50.200;19.038;2024-02-15T03:06:48;15.10;;;6.70;;
19189;SDS011;9727;50.200;19.038;2024-02-15T03:09:14;13.30;;;7.10;;
19189;SDS011;9727;50.200;19.038;2024-02-15T03:11:46;10.97;;;6.50;;
19189;SDS011;9727;50.200;19.038;2024-02-15T03:14:12;13.03;;;7.07;;
19189;SDS011;9727;50.200;19.038;2024-02-15T03:16:40;14.90;;;8.00;;
19189;SDS011;9727;50.200;19.038;2024-02-15T03:19:14;16.00;;;7.57;;
19189;SDS011;9727;50.200;19.038;2024-02-15T03:21:49;13.43;;;6.90;;
19189;SDS011;9727;50.200;19.038;2024-02-15T03:24:18;11.03;;;6.97;;
19189;SDS011;9727;50.200;19.038;2024-02-15T03:26:47;11.60;;;6.47;;
19189;SDS011;9727;50.200;19.038;2024-02-15T03:29:14;10.13;;;6.17;;
19189;SDS011;9727;50.200;19.038;2024-02-15T03:31:49;11.80;;;6.70;;
19189;SDS011;9727;50.200;19.038;2024-02-15T03:34:18;11.83;;;7.33;;
19189;SDS011;9727;50.200;19.038;2024-02-15T03:36:46;14.77;;;7.93;;
19189;SDS011;9727;50.200;19.038;2024-02-15T03:39:16;16.73;;;7.73;;
19189;SDS011;9727;50.200;19.038;2024-02-15T03:41:43;15.17;;;7.83;;
19189;SDS011;9727;50.200;19.038;2024-02-15T03:44:12;14.50;;;8.07;;
19189;SDS011;9727;50.200;19.038;2024-02-15T03:46:39;15.53;;;7.87;;
19189;SDS011;9727;50.200;19.038;2024-02-15T03:49:09;14.53;;;8.03;;
19189;SDS011;9727;50.200;19.038;2024-02-15T03:51:36;12.83;;;7.50;;
19189;SDS011;9727;50.200;19.038;2024-02-15T03:54:03;16.20;;;8.13;;
19189;SDS011;9727;50.200;19.038;2024-02-15T03:56:29;13.30;;;7.83;;
19189;SDS011;9727;50.200;19.038;2024-02-15T03:58:57;16.33;;;8.07;;
19189;SDS011;9727;50.200;19.038;2024-02-15T04:01:24;13.73;;;7.03;;
19189;SDS011;9727;50.200;19.038;2024-02-15T04:03:52;16.20;;;7.80;;
19189;SDS011;9727;50.200;19.038;2024-02-15T04:06:20;13.10;;;7.60;;
19189;SDS011;9727;50.200;19.038;2024-02-15T04:08:49;12.47;;;6.73;;
19189;SDS011;9727;50.200;19.038;2024-02-15T04:11:16;13.53;;;7.83;;
19189;SDS011;9727;50.200;19.038;2024-02-15T04:13:47;13.20;;;7.50;;
19189;SDS011;9727;50.200;19.038;2024-02-15T04:16:14;14.30;;;7.30;;
19189;SDS011;9727;50.200;19.038;2024-02-15T04:18:47;14.80;;;7.80;;
19189;SDS011;9727;50.200;19.038;2024-02-15T04:21:14;16.73;;;7.83;;
19189;SDS011;9727;50.200;19.038;2024-02-15T04:23:49;13.00;;;7.43;;
19189;SDS011;9727;50.200;19.038;2024-02-15T04:26:16;15.70;;;8.00;;
19189;SDS011;9727;50.200;19.038;2024-02-15T04:28:47;13.63;;;7.70;;
19189;SDS011;9727;50.200;19.038;2024-02-15T04:31:17;16.53;;;8.30;;
19189;SDS011;9727;50.200;19.038;2024-02-15T04:33:45;13.77;;;8.73;;
19189;SDS011;9727;50.200;19.038;2024-02-15T04:36:14;13.23;;;7.50;;
19189;SDS011;9727;50.200;19.038;2024-02-15T04:38:49;14.60;;;7.50;;
19189;SDS011;9727;50.200;19.038;2024-02-15T04:41:16;16.83;;;7.80;;
19189;SDS011;9727;50.200;19.038;2024-02-15T04:43:48;16.47;;;7.80;;
19189;SDS011;9727;50.200;19.038;2024-02-15T04:46:14;15.53;;;7.57;;
19189;SDS011;9727;50.200;19.038;2024-02-15T04:48:43;11.83;;;6.73;;
19189;SDS011;9727;50.200;19.038;2024-02-15T04:51:12;12.10;;;7.40;;
19189;SDS011;9727;50.200;19.038;2024-02-15T04:53:38;16.20;;;7.60;;
19189;SDS011;9727;50.200;19.038;2024-02-15T04:56:09;14.20;;;7.73;;
19189;SDS011;9727;50.200;19.038;2024-02-15T04:58:39;15.17;;;7.97;;
19189;SDS011;9727;50.200;19.038;2024-02-15T05:01:12;15.90;;;8.07;;
19189;SDS011;9727;50.200;19.038;2024-02-15T05:03:38;15.40;;;8.00;;
19189;SDS011;9727;50.200;19.038;2024-02-15T05:06:05;13.40;;;7.63;;
19189;SDS011;9727;50.200;19.038;2024-02-15T05:08:33;14.80;;;7.30;;
19189;SDS011;9727;50.200;19.038;2024-02-15T05:11:01;18.27;;;8.47;;
19189;SDS011;9727;50.200;19.038;2024-02-15T05:13:32;17.80;;;8.43;;
19189;SDS011;9727;50.200;19.038;2024-02-15T05:15:59;11.93;;;7.80;;
19189;SDS011;9727;50.200;19.038;2024-02-15T05:18:25;14.77;;;8.00;;
19189;SDS011;9727;50.200;19.038;2024-02-15T05:20:52;15.83;;;8.10;;
19189;SDS011;9727;50.200;19.038;2024-02-15T05:23:18;15.70;;;8.47;;
19189;SDS011;9727;50.200;19.038;2024-02-15T05:25:46;15.90;;;8.90;;
19189;SDS011;9727;50.200;19.038;2024-02-15T05:28:12;18.37;;;9.33;;
19189;SDS011;9727;50.200;19.038;2024-02-15T05:30:40;16.53;;;9.43;;
19189;SDS011;9727;50.200;19.038;2024-02-15T05:33:11;20.50;;;10.10;;
19189;SDS011;9727;50.200;19.038;2024-02-15T05:35:37;22.10;;;10.87;;
19189;SDS011;9727;50.200;19.038;2024-02-15T05:38:08;17.70;;;9.93;;
19189;SDS011;9727;50.200;19.038;2024-02-15T05:40:36;18.90;;;11.00;;
19189;SDS011;9727;50.200;19.038;2024-02-15T05:43:03;23.77;;;11.97;;
19189;SDS011;9727;50.200;19.038;2024-02-15T05:45:31;22.73;;;11.67;;
19189;SDS011;9727;50.200;19.038;2024-02-15T05:48:05;23.10;;;12.07;;
19189;SDS011;9727;50.200;19.038;2024-02-15T05:50:38;19.43;;;11.50;;
19189;SDS011;9727;50.200;19.038;2024-02-15T05:53:05;19.60;;;12.87;;
19189;SDS011;9727;50.200;19.038;2024-02-15T05:55:33;22.60;;;12.10;;
19189;SDS011;9727;50.200;19.038;2024-02-15T05:58:02;22.43;;;11.93;;
19189;SDS011;9727;50.200;19.038;2024-02-15T06:00:28;24.53;;;13.20;;
19189;SDS011;9727;50.200;19.038;2024-02-15T06:02:55;27.83;;;13.57;;
19189;SDS011;9727;50.200;19.038;2024-02-15T06:05:23;24.90;;;14.80;;
19189;SDS011;9727;50.200;19.038;2024-02-15T06:07:50;27.27;;;14.23;;
19189;SDS011;9727;50.200;19.038;2024-02-15T06:10:16;23.83;;;13.90;;
19189;SDS011;9727;50.200;19.038;2024-02-15T06:12:43;28.87;;;14.97;;
19189;SDS011;9727;50.200;19.038;2024-02-15T06:15:13;30.73;;;16.07;;
19189;SDS011;9727;50.200;19.038;2024-02-15T06:17:43;25.67;;;15.03;;
19189;SDS011;9727;50.200;19.038;2024-02-15T06:20:12;26.93;;;15.13;;
19189;SDS011;9727;50.200;19.038;2024-02-15T06:22:47;30.97;;;15.63;;
19189;SDS011;9727;50.200;19.038;2024-02-15T06:25:14;26.10;;;15.57;;
19189;SDS011;9727;50.200;19.038;2024-02-15T06:27:46;29.20;;;14.87;;
19189;SDS011;9727;50.200;19.038;2024-02-15T06:30:13;28.20;;;16.40;;
19189;SDS011;9727;50.200;19.038;2024-02-15T06:32:58;30.73;;;17.33;;
19189;SDS011;9727;50.200;19.038;2024-02-15T06:35:43;32.40;;;16.33;;
19189;SDS011;9727;50.200;19.038;2024-02-15T06:38:28;34.83;;;17.30;;
19189;SDS011;9727;50.200;19.038;2024-02-15T06:41:13;26.47;;;15.07;;
19189;SDS011;9727;50.200;19.038;2024-02-15T06:43:39;35.97;;;15.90;;
19189;SDS011;9727;50.200;19.038;2024-02-15T06:46:08;31.03;;;15.67;;
19189;SDS011;9727;50.200;19.038;2024-02-15T06:48:35;33.23;;;16.97;;
19189;SDS011;9727;50.200;19.038;2024-02-15T06:51:02;36.57;;;17.47;;
19189;SDS011;9727;50.200;19.038;2024-02-15T06:53:31;30.10;;;16.60;;
19189;SDS011;9727;50.200;19.038;2024-02-15T06:55:57;38.50;;;17.60;;
19189;SDS011;9727;50.200;19.038;2024-02-15T06:58:24;34.03;;;18.03;;
19189;SDS011;9727;50.200;19.038;2024-02-15T07:00:52;33.33;;;17.07;;
19189;SDS011;9727;50.200;19.038;2024-02-15T07:03:18;30.17;;;16.53;;
19189;SDS011;9727;50.200;19.038;2024-02-15T07:05:47;35.20;;;17.33;;
19189;SDS011;9727;50.200;19.038;2024-02-15T07:08:14;33.47;;;17.67;;
19189;SDS011;9727;50.200;19.038;2024-02-15T07:10:49;34.70;;;17.40;;
19189;SDS011;9727;50.200;19.038;2024-02-15T07:13:16;30.73;;;16.80;;
19189;SDS011;9727;50.200;19.038;2024-02-15T07:15:43;30.07;;;17.17;;
19189;SDS011;9727;50.200;19.038;2024-02-15T07:18:12;38.57;;;18.33;;
19189;SDS011;9727;50.200;19.038;2024-02-15T07:20:38;32.97;;;18.93;;
19189;SDS011;9727;50.200;19.038;2024-02-15T07:23:08;39.27;;;22.03;;
19189;SDS011;9727;50.200;19.038;2024-02-15T07:25:34;39.67;;;21.37;;
19189;SDS011;9727;50.200;19.038;2024-02-15T07:28:04;43.67;;;22.37;;
19189;SDS011;9727;50.200;19.038;2024-02-15T07:30:30;42.13;;;23.00;;
19189;SDS011;9727;50.200;19.038;2024-02-15T07:32:57;43.50;;;22.97;;
19189;SDS011;9727;50.200;19.038;2024-02-15T07:35:24;41.33;;;22.73;;
19189;SDS011;9727;50.200;19.038;2024-02-15T07:37:51;49.00;;;23.57;;
19189;SDS011;9727;50.200;19.038;2024-02-15T07:40:18;44.17;;;23.63;;
19189;SDS011;9727;50.200;19.038;2024-02-15T07:42:47;48.57;;;24.17;;
19189;SDS011;9727;50.200;19.038;2024-02-15T07:45:15;50.40;;;25.17;;
19189;SDS011;9727;50.200;19.038;2024-02-15T07:47:43;50.17;;;26.03;;
19189;SDS011;9727;50.200;19.038;2024-02-15T07:50:14;44.40;;;25.27;;
19189;SDS011;9727;50.200;19.038;2024-02-15T07:52:47;44.97;;;25.83;;
19189;SDS011;9727;50.200;19.038;2024-02-15T07:55:14;46.23;;;26.23;;
19189;SDS011;9727;50.200;19.038;2024-02-15T07:57:40;49.87;;;25.90;;
19189;SDS011;9727;50.200;19.038;2024-02-15T08:00:16;41.03;;;23.67;;
19189;SDS011;9727;50.200;19.038;2024-02-15T08:02:43;45.03;;;23.77;;
19189;SDS011;9727;50.200;19.038;2024-02-15T08:05:12;41.27;;;22.03;;
19189;SDS011;9727;50.200;19.038;2024-02-15T08:07:41;37.57;;;21.30;;
19189;SDS011;9727;50.200;19.038;2024-02-15T08:10:12;36.17;;;20.43;;
19189;SDS011;9727;50.200;19.038;2024-02-15T08:12:39;39.10;;;20.80;;
19189;SDS011;9727;50.200;19.038;2024-02-15T08:15:09;38.27;;;20.43;;
19189;SDS011;9727;50.200;19.038;2024-02-15T08:17:39;38.10;;;20.83;;
19189;SDS011;9727;50.200;19.038;2024-02-15T08:20:16;38.80;;;19.43;;
19189;SDS011;9727;50.200;19.038;2024-02-15T08:22:46;41.67;;;20.40;;
19189;SDS011;9727;50.200;19.038;2024-02-15T08:25:16;37.37;;;19.97;;
19189;SDS011;9727;50.200;19.038;2024-02-15T08:27:43;34.30;;;19.10;;
19189;SDS011;9727;50.200;19.038;2024-02-15T08:30:15;36.57;;;20.50;;
19189;SDS011;9727;50.200;19.038;2024-02-15T08:32:47;38.10;;;20.47;;
19189;SDS011;9727;50.200;19.038;2024-02-15T08:35:14;36.83;;;19.73;;
19189;SDS011;9727;50.200;19.038;2024-02-15T08:37:40;35.70;;;19.40;;
19189;SDS011;9727;50.200;19.038;2024-02-15T08:40:12;31.37;;;18.63;;
19189;SDS011;9727;50.200;19.038;2024-02-15T08:42:40;33.50;;;19.23;;
19189;SDS011;9727;50.200;19.038;2024-02-15T08:45:15;28.73;;;16.50;;
19189;SDS011;9727;50.200;19.038;2024-02-15T08:47:47;30.43;;;15.47;;
19189;SDS011;9727;50.200;19.038;2024-02-15T08:50:15;27.03;;;13.83;;
19189;SDS011;9727;50.200;19.038;2024-02-15T08:52:43;22.10;;;12.30;;
19189;SDS011;9727;50.200;19.038;2024-02-15T08:55:12;19.33;;;10.60;;
19189;SDS011;9727;50.200;19.038;2024-02-15T08:57:39;17.40;;;9.30;;
19189;SDS011;9727;50.200;19.038;2024-02-15T09:00:11;13.80;;;7.47;;
19189;SDS011;9727;50.200;19.038;2024-02-15T09:02:43;14.90;;;7.43;;
19189;SDS011;9727;50.200;19.038;2024-02-15T09:05:13;12.60;;;6.77;;
19189;SDS011;9727;50.200;19.038;2024-02-15T09:07:40;12.13;;;6.97;;
19189;SDS011;9727;50.200;19.038;2024-02-15T09:10:09;13.30;;;7.37;;
19189;SDS011;9727;50.200;19.038;2024-02-15T09:12:36;16.43;;;6.97;;
19189;SDS011;9727;50.200;19.038;2024-02-15T09:15:05;11.97;;;5.83;;
19189;SDS011;9727;50.200;19.038;2024-02-15T09:17:32;11.73;;;6.07;;
19189;SDS011;9727;50.200;19.038;2024-02-15T09:20:04;9.23;;;5.70;;
19189;SDS011;9727;50.200;19.038;2024-02-15T09:22:33;12.93;;;6.30;;
19189;SDS011;9727;50.200;19.038;2024-02-15T09:25:01;11.50;;;6.40;;
19189;SDS011;9727;50.200;19.038;2024-02-15T09:27:27;13.20;;;6.60;;
19189;SDS011;9727;50.200;19.038;2024-02-15T09:29:54;12.67;;;6.60;;
19189;SDS011;9727;50.200;19.038;2024-02-15T09:32:21;13.33;;;6.23;;
19189;SDS011;9727;50.200;19.038;2024-02-15T09:34:48;12.90;;;6.37;;
19189;SDS011;9727;50.200;19.038;2024-02-15T09:37:15;19.27;;;7.90;;
19189;SDS011;9727;50.200;19.038;2024-02-15T09:39:49;16.23;;;7.87;;
19189;SDS011;9727;50.200;19.038;2024-02-15T09:42:16;14.10;;;7.33;;
19189;SDS011;9727;50.200;19.038;2024-02-15T09:44:42;9.93;;;5.77;;
19189;SDS011;9727;50.200;19.038;2024-02-15T09:47:12;13.70;;;5.57;;
19189;SDS011;9727;50.200;19.038;2024-02-15T09:49:40;6.73;;;3.07;;
19189;SDS011;9727;50.200;19.038;2024-02-15T09:52:11;5.27;;;2.80;;
19189;SDS011;9727;50.200;19.038;2024-02-15T09:54:52;4.27;;;2.10;;
19189;SDS011;9727;50.200;19.038;2024-02-15T09:57:19;5.50;;;2.40;;
19189;SDS011;9727;50.200;19.038;2024-02-15T09:59:46;3.77;;;1.97;;
19189;SDS011;9727;50.200;19.038;2024-02-15T10:02:13;3.83;;;1.90;;
19189;SDS011;9727;50.200;19.038;2024-02-15T10:04:39;5.60;;;2.37;;
19189;SDS011;9727;50.200;19.038;2024-02-15T10:07:08;3.47;;;2.20;;
19189;SDS011;9727;50.200;19.038;2024-02-15T10:09:35;4.67;;;1.97;;
19189;SDS011;9727;50.200;19.038;2024-02-15T10:12:03;3.53;;;2.17;;
19189;SDS011;9727;50.200;19.038;2024-02-15T10:14:32;4.20;;;2.60;;
19189;SDS011;9727;50.200;19.038;2024-02-15T10:17:00;4.77;;;2.10;;
19189;SDS011;9727;50.200;19.038;2024-02-15T10:19:31;3.50;;;2.50;;
19189;SDS011;9727;50.200;19.038;2024-02-15T10:22:05;4.23;;;2.63;;
19189;SDS011;9727;50.200;19.038;2024-02-15T10:24:32;6.03;;;3.10;;
19189;SDS011;9727;50.200;19.038;2024-02-15T10:27:00;4.77;;;3.00;;
19189;SDS011;9727;50.200;19.038;2024-02-15T10:29:30;7.73;;;3.70;;
19189;SDS011;9727;50.200;19.038;2024-02-15T10:31:57;5.93;;;3.83;;
19189;SDS011;9727;50.200;19.038;2024-02-15T10:34:24;7.87;;;3.60;;
19189;SDS011;9727;50.200;19.038;2024-02-15T10:36:52;5.83;;;3.80;;
19189;SDS011;9727;50.200;19.038;2024-02-15T10:39:21;9.00;;;4.10;;
19189;SDS011;9727;50.200;19.038;2024-02-15T10:41:49;5.73;;;3.70;;
19189;SDS011;9727;50.200;19.038;2024-02-15T10:44:17;6.93;;;3.97;;
19189;SDS011;9727;50.200;19.038;2024-02-15T10:46:48;8.00;;;3.90;;
19189;SDS011;9727;50.200;19.038;2024-02-15T10:49:21;6.10;;;3.70;;
19189;SDS011;9727;50.200;19.038;2024-02-15T10:51:52;8.20;;;3.90;;
19189;SDS011;9727;50.200;19.038;2024-02-15T10:54:30;5.57;;;3.80;;
19189;SDS011;9727;50.200;19.038;2024-02-15T10:57:03;6.93;;;4.03;;
19189;SDS011;9727;50.200;19.038;2024-02-15T10:59:31;7.03;;;3.90;;
19189;SDS011;9727;50.200;19.038;2024-02-15T11:01:59;5.53;;;3.50;;
19189;SDS011;9727;50.200;19.038;2024-02-15T11:04:30;5.53;;;3.40;;
19189;SDS011;9727;50.200;19.038;2024-02-15T11:06:58;4.83;;;3.33;;
19189;SDS011;9727;50.200;19.038;2024-02-15T11:09:25;5.97;;;3.30;;
19189;SDS011;9727;50.200;19.038;2024-02-15T11:11:52;6.07;;;3.57;;
19189;SDS011;9727;50.200;19.038;2024-02-15T11:14:28;9.80;;;3.93;;
19189;SDS011;9727;50.200;19.038;2024-02-15T11:16:57;6.83;;;3.47;;
19189;SDS011;9727;50.200;19.038;2024-02-15T11:19:47;6.87;;;3.57;;
19189;SDS011;9727;50.200;19.038;2024-02-15T11:22:14;7.70;;;3.53;;
19189;SDS011;9727;50.200;19.038;2024-02-15T11:24:50;7.60;;;3.47;;
19189;SDS011;9727;50.200;19.038;2024-02-15T11:27:23;5.27;;;3.53;;
19189;SDS011;9727;50.200;19.038;2024-02-15T11:29:51;5.70;;;3.30;;
19189;SDS011;9727;50.200;19.038;2024-02-15T11:32:39;5.90;;;3.37;;
19189;SDS011;9727;50.200;19.038;2024-02-15T11:35:10;8.07;;;3.43;;
19189;SDS011;9727;50.200;19.038;2024-02-15T11:37:54;7.73;;;3.93;;
19189;SDS011;9727;50.200;19.038;2024-02-15T11:40:23;7.03;;;3.77;;
19189;SDS011;9727;50.200;19.038;2024-02-15T11:42:51;6.27;;;3.63;;
19189;SDS011;9727;50.200;19.038;2024-02-15T11:45:18;6.57;;;3.57;;
19189;SDS011;9727;50.200;19.038;2024-02-15T11:47:49;5.80;;;3.50;;
19189;SDS011;9727;50.200;19.038;2024-02-15T11:50:18;4.00;;;2.97;;
19189;SDS011;9727;50.200;19.038;2024-02-15T11:52:46;9.50;;;3.47;;
19189;SDS011;9727;50.200;19.038;2024-02-15T11:55:14;10.27;;;4.00;;
19189;SDS011;9727;50.200;19.038;2024-02-15T11:57:53;5.77;;;3.50;;
19189;SDS011;9727;50.200;19.038;2024-02-15T12:00:28;6.90;;;3.90;;
19189;SDS011;9727;50.200;19.038;2024-02-15T12:03:13;6.90;;;4.47;;
19189;SDS011;9727;50.200;19.038;2024-02-15T12:05:59;9.63;;;3.93;;
19189;SDS011;9727;50.200;19.038;2024-02-15T12:08:43;8.67;;;3.47;;
19189;SDS011;9727;50.200;19.038;2024-02-15T12:11:28;6.30;;;3.17;;
19189;SDS011;9727;50.200;19.038;2024-02-15T12:14:12;5.53;;;3.33;;
19189;SDS011;9727;50.200;19.038;2024-02-15T12:17:00;5.80;;;3.33;;
19189;SDS011;9727;50.200;19.038;2024-02-15T12:19:43;5.13;;;2.90;;
19189;SDS011;9727;50.200;19.038;2024-02-15T12:22:17;5.50;;;3.30;;
19189;SDS011;9727;50.200;19.038;2024-02-15T12:24:52;5.70;;;3.13;;
19189;SDS011;9727;50.200;19.038;2024-02-15T12:27:21;5.60;;;3.40;;
19189;SDS011;9727;50.200;19.038;2024-02-15T12:29:55;4.93;;;2.93;;
19189;SDS011;9727;50.200;19.038;2024-02-15T12:32:22;5.43;;;3.20;;
19189;SDS011;9727;50.200;19.038;2024-02-15T12:34:49;5.33;;;2.90;;
19189;SDS011;9727;50.200;19.038;2024-02-15T12:37:18;4.90;;;3.00;;
19189;SDS011;9727;50.200;19.038;2024-02-15T12:39:47;4.70;;;2.70;;
19189;SDS011;9727;50.200;19.038;2024-02-15T12:42:14;3.20;;;2.50;;
19189;SDS011;9727;50.200;19.038;2024-02-15T12:44:50;5.30;;;2.63;;
19189;SDS011;9727;50.200;19.038;2024-02-15T12:47:18;6.23;;;2.90;;
19189;SDS011;9727;50.200;19.038;2024-02-15T12:49:47;4.40;;;2.80;;
19189;SDS011;9727;50.200;19.038;2024-02-15T12:55:11;5.30;;;3.40;;
19189;SDS011;9727;50.200;19.038;2024-02-15T12:57:38;7.40;;;3.33;;
19189;SDS011;9727;50.200;19.038;2024-02-15T13:00:11;5.93;;;3.00;;
19189;SDS011;9727;50.200;19.038;2024-02-15T13:02:43;5.20;;;3.00;;
19189;SDS011;9727;50.200;19.038;2024-02-15T13:05:14;3.90;;;2.37;;
19189;SDS011;9727;50.200;19.038;2024-02-15T13:07:41;5.67;;;2.70;;
19189;SDS011;9727;50.200;19.038;2024-02-15T13:10:14;3.83;;;2.20;;
19189;SDS011;9727;50.200;19.038;2024-02-15T13:12:43;4.73;;;2.40;;
19189;SDS011;9727;50.200;19.038;2024-02-15T13:15:12;5.07;;;2.80;;
19189;SDS011;9727;50.200;19.038;2024-02-15T13:17:42;6.10;;;2.90;;
19189;SDS011;9727;50.200;19.038;2024-02-15T13:20:12;6.53;;;2.80;;
19189;SDS011;9727;50.200;19.038;2024-02-15T13:22:39;5.33;;;2.40;;
19189;SDS011;9727;50.200;19.038;2024-02-15T13:25:06;4.33;;;2.33;;
19189;SDS011;9727;50.200;19.038;2024-02-15T13:27:35;5.73;;;2.50;;
19189;SDS011;9727;50.200;19.038;2024-02-15T13:30:03;3.23;;;2.20;;
19189;SDS011;9727;50.200;19.038;2024-02-15T13:32:33;6.00;;;2.80;;
19189;SDS011;9727;50.200;19.038;2024-02-15T13:35:00;6.23;;;2.30;;
19189;SDS011;9727;50.200;19.038;2024-02-15T13:37:32;4.90;;;2.30;;
19189;SDS011;9727;50.200;19.038;2024-02-15T13:39:59;4.33;;;2.50;;
19189;SDS011;9727;50.200;19.038;2024-02-15T13:42:25;4.53;;;2.40;;
19189;SDS011;9727;50.200;19.038;2024-02-15T13:44:53;5.27;;;3.00;;
19189;SDS011;9727;50.200;19.038;2024-02-15T13:47:21;3.97;;;2.63;;
19189;SDS011;9727;50.200;19.038;2024-02-15T13:49:48;4.57;;;2.63;;
19189;SDS011;9727;50.200;19.038;2024-02-15T13:52:15;5.93;;;3.53;;
19189;SDS011;9727;50.200;19.038;2024-02-15T13:54:43;4.37;;;2.87;;
19189;SDS011;9727;50.200;19.038;2024-02-15T13:57:11;5.00;;;3.10;;
19189;SDS011;9727;50.200;19.038;2024-02-15T13:59:39;5.60;;;3.10;;
19189;SDS011;9727;50.200;19.038;2024-02-15T14:02:07;6.20;;;2.90;;
19189;SDS011;9727;50.200;19.038;2024-02-15T14:04:33;5.13;;;3.33;;
19189;SDS011;9727;50.200;19.038;2024-02-15T14:07:00;4.63;;;2.70;;
19189;SDS011;9727;50.200;19.038;2024-02-15T14:09:27;4.30;;;2.47;;
19189;SDS011;9727;50.200;19.038;2024-02-15T14:11:53;5.47;;;3.07;;
19189;SDS011;9727;50.200;19.038;2024-02-15T14:14:20;4.60;;;2.80;;
19189;SDS011;9727;50.200;19.038;2024-02-15T14:16:47;5.43;;;3.03;;
19189;SDS011;9727;50.200;19.038;2024-02-15T14:19:15;5.83;;;3.23;;
19189;SDS011;9727;50.200;19.038;2024-02-15T14:21:43;5.80;;;3.20;;
19189;SDS011;9727;50.200;19.038;2024-02-15T14:24:12;6.60;;;3.57;;
19189;SDS011;9727;50.200;19.038;2024-02-15T14:26:39;6.23;;;3.30;;
19189;SDS011;9727;50.200;19.038;2024-02-15T14:29:05;5.70;;;3.20;;
19189;SDS011;9727;50.200;19.038;2024-02-15T14:31:32;4.70;;;3.27;;
19189;SDS011;9727;50.200;19.038;2024-02-15T14:34:17;5.17;;;3.00;;
19189;SDS011;9727;50.200;19.038;2024-02-15T14:36:46;5.53;;;3.20;;
19189;SDS011;9727;50.200;19.038;2024-02-15T14:39:13;4.93;;;3.10;;
19189;SDS011;9727;50.200;19.038;2024-02-15T14:41:40;6.93;;;3.17;;
19189;SDS011;9727;50.200;19.038;2024-02-15T14:44:11;8.43;;;3.80;;
19189;SDS011;9727;50.200;19.038;2024-02-15T14:46:39;4.20;;;3.13;;
19189;SDS011;9727;50.200;19.038;2024-02-15T14:49:05;5.37;;;3.40;;
19189;SDS011;9727;50.200;19.038;2024-02-15T14:51:34;6.63;;;3.67;;